sensor_id;sensor_type;location;lat;lon;timestamp;pressure;altitude;pressure_sealevel;temperature;humidity
48652;BME280;34442;52.362;-1.302;2022-08-25T00:00:48;100465.16;;;19.30;100.00
48652;BME280;34442;52.362;-1.302;2022-08-25T00:03:15;100468.97;;;19.29;100.00
48652;BME280;34442;52.362;-1.302;2022-08-25T00:05:41;100458.84;;;19.25;100.00
48652;BME280;34442;52.362;-1.302;2022-08-25T00:08:07;100448.22;;;19.23;100.00
48652;BME280;34442;52.362;-1.302;2022-08-25T00:10:35;100446.91;;;19.31;100.00
48652;BME280;34442;52.362;-1.302;2022-08-25T00:13:03;100452.06;;;19.27;100.00
48652;BME280;34442;52.362;-1.302;2022-08-25T00:15:30;100445.75;;;19.22;100.00
48652;BME280;34442;52.362;-1.302;2022-08-25T00:17:57;100441.66;;;19.19;100.00
48652;BME280;34442;52.362;-1.302;2022-08-25T00:20:26;100435.66;;;19.22;100.00
48652;BME280;34442;52.362;-1.302;2022-08-25T00:22:53;100437.47;;;19.06;100.00
48652;BME280;34442;52.362;-1.302;2022-08-25T00:25:21;100429.25;;;19.01;100.00
48652;BME280;34442;52.362;-1.302;2022-08-25T00:27:51;100442.03;;;19.01;100.00
48652;BME280;34442;52.362;-1.302;2022-08-25T00:30:17;100443.13;;;19.00;100.00
48652;BME280;34442;52.362;-1.302;2022-08-25T00:32:44;100430.88;;;18.97;100.00
48652;BME280;34442;52.362;-1.302;2022-08-25T00:35:11;100441.47;;;18.94;100.00
48652;BME280;34442;52.362;-1.302;2022-08-25T00:37:37;100438.69;;;18.89;100.00
48652;BME280;34442;52.362;-1.302;2022-08-25T00:40:04;100436.22;;;18.87;100.00
48652;BME280;34442;52.362;-1.302;2022-08-25T00:42:30;100442.47;;;18.88;100.00
48652;BME280;34442;52.362;-1.302;2022-08-25T00:44:56;100436.81;;;18.94;100.00
48652;BME280;34442;52.362;-1.302;2022-08-25T00:47:24;100432.19;;;18.95;100.00
48652;BME280;34442;52.362;-1.302;2022-08-25T00:49:57;100445.84;;;19.00;100.00
48652;BME280;34442;52.362;-1.302;2022-08-25T00:52:28;100450.78;;;19.03;100.00
48652;BME280;34442;52.362;-1.302;2022-08-25T00:55:44;100457.06;;;19.03;100.00
48652;BME280;34442;52.362;-1.302;2022-08-25T00:57:50;100454.63;;;19.07;100.00
48652;BME280;34442;52.362;-1.302;2022-08-25T01:02:49;100451.09;;;19.06;100.00
48652;BME280;34442;52.362;-1.302;2022-08-25T01:05:16;100447.59;;;19.11;100.00
48652;BME280;34442;52.362;-1.302;2022-08-25T01:07:44;100450.50;;;19.04;100.00
48652;BME280;34442;52.362;-1.302;2022-08-25T01:10:11;100452.94;;;19.01;100.00
48652;BME280;34442;52.362;-1.302;2022-08-25T01:12:38;100447.75;;;18.99;100.00
48652;BME280;34442;52.362;-1.302;2022-08-25T01:15:06;100449.59;;;18.89;100.00
48652;BME280;34442;52.362;-1.302;2022-08-25T01:17:54;100443.91;;;18.95;100.00
48652;BME280;34442;52.362;-1.302;2022-08-25T01:20:24;100450.72;;;18.93;100.00
48652;BME280;34442;52.362;-1.302;2022-08-25T01:22:53;100454.81;;;18.95;100.00
48652;BME280;34442;52.362;-1.302;2022-08-25T01:28:04;100452.72;;;19.07;100.00
48652;BME280;34442;52.362;-1.302;2022-08-25T01:30:30;100453.56;;;19.13;100.00
48652;BME280;34442;52.362;-1.302;2022-08-25T01:32:56;100449.50;;;19.11;100.00
48652;BME280;34442;52.362;-1.302;2022-08-25T01:35:22;100455.44;;;19.07;100.00
48652;BME280;34442;52.362;-1.302;2022-08-25T01:37:49;100448.41;;;19.12;100.00
48652;BME280;34442;52.362;-1.302;2022-08-25T01:40:15;100458.22;;;19.13;100.00
48652;BME280;34442;52.362;-1.302;2022-08-25T01:42:52;100455.47;;;19.13;100.00
48652;BME280;34442;52.362;-1.302;2022-08-25T01:45:20;100459.28;;;19.06;100.00
48652;BME280;34442;52.362;-1.302;2022-08-25T01:47:46;100450.78;;;19.03;100.00
48652;BME280;34442;52.362;-1.302;2022-08-25T01:50:12;100448.91;;;19.08;100.00
48652;BME280;34442;52.362;-1.302;2022-08-25T01:53:03;100454.97;;;19.16;100.00
48652;BME280;34442;52.362;-1.302;2022-08-25T01:55:31;100461.53;;;19.20;100.00
48652;BME280;34442;52.362;-1.302;2022-08-25T01:58:28;100456.09;;;19.20;100.00
48652;BME280;34442;52.362;-1.302;2022-08-25T02:00:59;100448.41;;;19.12;100.00
48652;BME280;34442;52.362;-1.302;2022-08-25T02:03:27;100446.47;;;19.07;100.00
48652;BME280;34442;52.362;-1.302;2022-08-25T02:05:55;100444.28;;;19.09;100.00
48652;BME280;34442;52.362;-1.302;2022-08-25T02:08:22;100449.16;;;19.02;100.00
48652;BME280;34442;52.362;-1.302;2022-08-25T02:10:50;100454.94;;;19.11;100.00
48652;BME280;34442;52.362;-1.302;2022-08-25T02:13:16;100451.09;;;19.06;100.00
48652;BME280;34442;52.362;-1.302;2022-08-25T02:15:45;100447.84;;;19.09;100.00
48652;BME280;34442;52.362;-1.302;2022-08-25T02:18:13;100447.59;;;19.11;100.00
48652;BME280;34442;52.362;-1.302;2022-08-25T02:20:39;100445.16;;;19.15;100.00
48652;BME280;34442;52.362;-1.302;2022-08-25T02:23:05;100442.69;;;19.13;100.00
48652;BME280;34442;52.362;-1.302;2022-08-25T02:25:31;100439.44;;;19.16;100.00
48652;BME280;34442;52.362;-1.302;2022-08-25T02:27:58;100442.44;;;19.15;100.00
48652;BME280;34442;52.362;-1.302;2022-08-25T02:30:25;100431.53;;;19.15;100.00
48652;BME280;34442;52.362;-1.302;2022-08-25T02:32:52;100421.16;;;19.17;100.00
48652;BME280;34442;52.362;-1.302;2022-08-25T02:35:18;100417.63;;;19.16;100.00
48652;BME280;34442;52.362;-1.302;2022-08-25T02:37:44;100409.44;;;19.16;100.00
48652;BME280;34442;52.362;-1.302;2022-08-25T02:40:10;100410.19;;;19.01;100.00
48652;BME280;34442;52.362;-1.302;2022-08-25T02:42:37;100409.91;;;19.03;100.00
48652;BME280;34442;52.362;-1.302;2022-08-25T02:45:03;100409.31;;;18.96;100.00
48652;BME280;34442;52.362;-1.302;2022-08-25T02:47:29;100411.53;;;18.99;100.00
48652;BME280;34442;52.362;-1.302;2022-08-25T02:49:56;100406.59;;;18.96;100.00
48652;BME280;34442;52.362;-1.302;2022-08-25T02:52:22;100399.50;;;18.95;100.00
48652;BME280;34442;52.362;-1.302;2022-08-25T02:54:50;100397.06;;;18.98;100.00
48652;BME280;34442;52.362;-1.302;2022-08-25T02:57:16;100399.00;;;19.03;100.00
48652;BME280;34442;52.362;-1.302;2022-08-25T02:59:43;100401.47;;;19.04;100.00
48652;BME280;34442;52.362;-1.302;2022-08-25T03:02:14;100397.19;;;19.14;100.00
48652;BME280;34442;52.362;-1.302;2022-08-25T03:04:41;100408.00;;;19.03;100.00
48652;BME280;34442;52.362;-1.302;2022-08-25T03:07:09;100403.38;;;19.04;100.00
48652;BME280;34442;52.362;-1.302;2022-08-25T03:09:35;100403.16;;;19.11;100.00
48652;BME280;34442;52.362;-1.302;2022-08-25T03:12:02;100407.22;;;19.08;100.00
48652;BME280;34442;52.362;-1.302;2022-08-25T03:14:28;100403.69;;;19.07;100.00
48652;BME280;34442;52.362;-1.302;2022-08-25T03:16:55;100397.91;;;18.99;100.00
48652;BME280;34442;52.362;-1.302;2022-08-25T03:19:21;100409.84;;;18.93;100.00
48652;BME280;34442;52.362;-1.302;2022-08-25T03:21:48;100419.69;;;18.99;100.00
48652;BME280;34442;52.362;-1.302;2022-08-25T03:24:17;100411.47;;;18.89;100.00
48652;BME280;34442;52.362;-1.302;2022-08-25T03:26:43;100402.09;;;18.79;100.00
48652;BME280;34442;52.362;-1.302;2022-08-25T03:29:19;100402.88;;;18.75;100.00
48652;BME280;34442;52.362;-1.302;2022-08-25T03:31:46;100397.72;;;18.73;100.00
48652;BME280;34442;52.362;-1.302;2022-08-25T03:34:14;100391.44;;;18.73;100.00
48652;BME280;34442;52.362;-1.302;2022-08-25T03:36:47;100384.63;;;18.75;100.00
48652;BME280;34442;52.362;-1.302;2022-08-25T03:39:15;100383.78;;;18.70;100.00
48652;BME280;34442;52.362;-1.302;2022-08-25T03:41:41;100379.97;;;18.71;100.00
48652;BME280;34442;52.362;-1.302;2022-08-25T03:44:07;100382.34;;;18.62;100.00
48652;BME280;34442;52.362;-1.302;2022-08-25T03:46:40;100386.25;;;18.71;100.00
48652;BME280;34442;52.362;-1.302;2022-08-25T03:49:13;100380.88;;;18.81;100.00
48652;BME280;34442;52.362;-1.302;2022-08-25T03:51:43;100365.38;;;18.82;100.00
48652;BME280;34442;52.362;-1.302;2022-08-25T03:54:16;100351.78;;;18.92;100.00
48652;BME280;34442;52.362;-1.302;2022-08-25T03:56:42;100352.25;;;18.79;100.00
48652;BME280;34442;52.362;-1.302;2022-08-25T03:59:09;100347.13;;;18.82;100.00
48652;BME280;34442;52.362;-1.302;2022-08-25T04:01:36;100345.78;;;18.85;100.00
48652;BME280;34442;52.362;-1.302;2022-08-25T04:04:03;100346.91;;;18.94;100.00
48652;BME280;34442;52.362;-1.302;2022-08-25T04:06:30;100342.00;;;18.91;100.00
48652;BME280;34442;52.362;-1.302;2022-08-25T04:08:56;100355.38;;;18.93;100.00
48652;BME280;34442;52.362;-1.302;2022-08-25T04:11:24;100354.78;;;18.86;100.00
48652;BME280;34442;52.362;-1.302;2022-08-25T04:13:51;100352.88;;;18.91;100.00
48652;BME280;34442;52.362;-1.302;2022-08-25T04:16:21;100348.75;;;18.83;100.00
48652;BME280;34442;52.362;-1.302;2022-08-25T04:18:48;100344.69;;;18.86;100.00
48652;BME280;34442;52.362;-1.302;2022-08-25T04:21:15;100351.53;;;18.89;100.00
48652;BME280;34442;52.362;-1.302;2022-08-25T04:23:43;100353.69;;;18.87;100.00
48652;BME280;34442;52.362;-1.302;2022-08-25T04:26:11;100356.13;;;18.88;100.00
48652;BME280;34442;52.362;-1.302;2022-08-25T04:28:38;100374.13;;;18.89;100.00
48652;BME280;34442;52.362;-1.302;2022-08-25T04:31:07;100380.13;;;18.91;100.00
48652;BME280;34442;52.362;-1.302;2022-08-25T04:33:35;100377.69;;;18.90;100.00
48652;BME280;34442;52.362;-1.302;2022-08-25T04:36:02;100380.09;;;18.86;100.00
48652;BME280;34442;52.362;-1.302;2022-08-25T04:38:28;100385.53;;;18.86;100.00
48652;BME280;34442;52.362;-1.302;2022-08-25T04:41:00;100379.81;;;18.82;100.00
48652;BME280;34442;52.362;-1.302;2022-08-25T04:43:26;100374.88;;;18.79;100.00
48652;BME280;34442;52.362;-1.302;2022-08-25T04:45:52;100374.38;;;18.88;100.00
48652;BME280;34442;52.362;-1.302;2022-08-25T04:48:18;100382.31;;;18.89;100.00
48652;BME280;34442;52.362;-1.302;2022-08-25T04:50:44;100389.41;;;18.90;100.00
48652;BME280;34442;52.362;-1.302;2022-08-25T04:53:10;100390.72;;;18.88;100.00
48652;BME280;34442;52.362;-1.302;2022-08-25T04:55:45;100407.06;;;18.88;100.00
48652;BME280;34442;52.362;-1.302;2022-08-25T04:58:12;100408.16;;;18.87;100.00
48652;BME280;34442;52.362;-1.302;2022-08-25T05:00:39;100409.25;;;18.86;100.00
48652;BME280;34442;52.362;-1.302;2022-08-25T05:03:05;100417.72;;;18.89;100.00
48652;BME280;34442;52.362;-1.302;2022-08-25T05:05:35;100403.03;;;18.95;100.00
48652;BME280;34442;52.362;-1.302;2022-08-25T05:08:02;100407.16;;;18.98;100.00
48652;BME280;34442;52.362;-1.302;2022-08-25T05:10:28;100406.00;;;18.89;100.00
48652;BME280;34442;52.362;-1.302;2022-08-25T05:12:54;100403.00;;;18.90;100.00
48652;BME280;34442;52.362;-1.302;2022-08-25T05:15:20;100403.53;;;18.87;100.00
48652;BME280;34442;52.362;-1.302;2022-08-25T05:18:05;100410.88;;;18.87;100.00
48652;BME280;34442;52.362;-1.302;2022-08-25T05:20:31;100416.03;;;18.83;100.00
48652;BME280;34442;52.362;-1.302;2022-08-25T05:23:00;100424.50;;;18.87;100.00
48652;BME280;34442;52.362;-1.302;2022-08-25T05:25:26;100424.19;;;18.83;100.00
48652;BME280;34442;52.362;-1.302;2022-08-25T05:27:52;100423.41;;;18.88;100.00
48652;BME280;34442;52.362;-1.302;2022-08-25T05:30:19;100424.47;;;18.81;100.00
48652;BME280;34442;52.362;-1.302;2022-08-25T05:32:44;100428.19;;;18.70;100.00
48652;BME280;34442;52.362;-1.302;2022-08-25T05:35:10;100421.41;;;18.73;100.00
48652;BME280;34442;52.362;-1.302;2022-08-25T05:37:37;100420.25;;;18.69;100.00
48652;BME280;34442;52.362;-1.302;2022-08-25T05:40:04;100418.56;;;18.63;100.00
48652;BME280;34442;52.362;-1.302;2022-08-25T05:42:31;100405.81;;;18.68;100.00
48652;BME280;34442;52.362;-1.302;2022-08-25T05:44:57;100417.59;;;18.74;100.00
48652;BME280;34442;52.362;-1.302;2022-08-25T05:47:23;100418.13;;;18.76;100.00
48652;BME280;34442;52.362;-1.302;2022-08-25T05:49:49;100416.19;;;18.71;100.00
48652;BME280;34442;52.362;-1.302;2022-08-25T05:52:15;100412.97;;;18.74;100.00
48652;BME280;34442;52.362;-1.302;2022-08-25T05:54:41;100412.44;;;18.77;100.00
48652;BME280;34442;52.362;-1.302;2022-08-25T05:57:10;100412.50;;;18.82;100.00
48652;BME280;34442;52.362;-1.302;2022-08-25T05:59:36;100416.53;;;18.80;100.00
48652;BME280;34442;52.362;-1.302;2022-08-25T06:02:02;100417.63;;;18.79;100.00
48652;BME280;34442;52.362;-1.302;2022-08-25T06:04:46;100412.91;;;18.69;100.00
48652;BME280;34442;52.362;-1.302;2022-08-25T06:07:12;100412.09;;;18.69;100.00
48652;BME280;34442;52.362;-1.302;2022-08-25T06:09:40;100417.19;;;18.92;100.00
48652;BME280;34442;52.362;-1.302;2022-08-25T06:12:07;100422.47;;;18.72;100.00
48652;BME280;34442;52.362;-1.302;2022-08-25T06:14:33;100421.94;;;18.75;100.00
48652;BME280;34442;52.362;-1.302;2022-08-25T06:16:59;100432.53;;;18.71;100.00
48652;BME280;34442;52.362;-1.302;2022-08-25T06:19:26;100425.81;;;18.79;100.00
48652;BME280;34442;52.362;-1.302;2022-08-25T06:21:56;100427.19;;;18.81;100.00
48652;BME280;34442;52.362;-1.302;2022-08-25T06:24:26;100439.41;;;18.79;100.00
48652;BME280;34442;52.362;-1.302;2022-08-25T06:26:53;100428.78;;;18.77;100.00
48652;BME280;34442;52.362;-1.302;2022-08-25T06:29:20;100434.25;;;18.77;100.00
48652;BME280;34442;52.362;-1.302;2022-08-25T06:31:46;100436.84;;;18.67;100.00
48652;BME280;34442;52.362;-1.302;2022-08-25T06:34:15;100443.75;;;18.75;100.00
48652;BME280;34442;52.362;-1.302;2022-08-25T06:36:41;100435.59;;;18.80;100.00
48652;BME280;34442;52.362;-1.302;2022-08-25T06:39:08;100444.25;;;18.72;100.00
48652;BME280;34442;52.362;-1.302;2022-08-25T06:41:34;100441.84;;;18.75;100.00
48652;BME280;34442;52.362;-1.302;2022-08-25T06:44:00;100447.34;;;18.80;100.00
48652;BME280;34442;52.362;-1.302;2022-08-25T06:46:27;100448.94;;;18.76;100.00
48652;BME280;34442;52.362;-1.302;2022-08-25T06:48:54;100453.31;;;18.77;100.00
48652;BME280;34442;52.362;-1.302;2022-08-25T06:51:23;100455.47;;;18.75;100.00
48652;BME280;34442;52.362;-1.302;2022-08-25T06:53:50;100468.03;;;18.76;100.00
48652;BME280;34442;52.362;-1.302;2022-08-25T06:56:18;100465.09;;;18.88;100.00
48652;BME280;34442;52.362;-1.302;2022-08-25T06:58:46;100459.41;;;18.90;100.00
48652;BME280;34442;52.362;-1.302;2022-08-25T07:01:18;100462.91;;;18.85;100.00
48652;BME280;34442;52.362;-1.302;2022-08-25T07:03:47;100462.66;;;18.87;100.00
48652;BME280;34442;52.362;-1.302;2022-08-25T07:06:14;100459.09;;;18.86;100.00
48652;BME280;34442;52.362;-1.302;2022-08-25T07:08:40;100457.00;;;18.93;100.00
48652;BME280;34442;52.362;-1.302;2022-08-25T07:11:07;100461.38;;;18.99;100.00
48652;BME280;34442;52.362;-1.302;2022-08-25T07:13:35;100465.41;;;18.92;100.00
48652;BME280;34442;52.362;-1.302;2022-08-25T07:16:02;100472.44;;;18.88;100.00
48652;BME280;34442;52.362;-1.302;2022-08-25T07:18:28;100475.19;;;18.88;100.00
48652;BME280;34442;52.362;-1.302;2022-08-25T07:20:55;100474.41;;;18.92;100.00
48652;BME280;34442;52.362;-1.302;2022-08-25T07:23:21;100473.03;;;18.90;100.00
48652;BME280;34442;52.362;-1.302;2022-08-25T07:25:49;100472.25;;;18.94;100.00
48652;BME280;34442;52.362;-1.302;2022-08-25T07:28:16;100466.09;;;18.77;100.00
48652;BME280;34442;52.362;-1.302;2022-08-25T07:30:42;100469.66;;;18.77;100.00
48652;BME280;34442;52.362;-1.302;2022-08-25T07:33:09;100472.09;;;18.79;100.00
48652;BME280;34442;52.362;-1.302;2022-08-25T07:35:35;100477.13;;;18.92;100.00
48652;BME280;34442;52.362;-1.302;2022-08-25T07:38:03;100484.28;;;18.98;100.00
48652;BME280;34442;52.362;-1.302;2022-08-25T07:40:31;100487.53;;;19.00;100.00
48652;BME280;34442;52.362;-1.302;2022-08-25T07:43:00;100482.06;;;18.95;100.00
48652;BME280;34442;52.362;-1.302;2022-08-25T07:45:29;100481.91;;;18.80;100.00
48652;BME280;34442;52.362;-1.302;2022-08-25T07:47:57;100474.69;;;18.96;100.00
48652;BME280;34442;52.362;-1.302;2022-08-25T07:50:24;100478.31;;;19.01;100.00
48652;BME280;34442;52.362;-1.302;2022-08-25T07:52:51;100475.53;;;18.96;100.00
48652;BME280;34442;52.362;-1.302;2022-08-25T07:55:17;100482.91;;;19.01;100.00
48652;BME280;34442;52.362;-1.302;2022-08-25T07:57:43;100485.25;;;18.87;100.00
48652;BME280;34442;52.362;-1.302;2022-08-25T08:00:11;100475.66;;;18.79;100.00
48652;BME280;34442;52.362;-1.302;2022-08-25T08:02:38;100476.19;;;18.76;100.00
48652;BME280;34442;52.362;-1.302;2022-08-25T08:05:05;100478.94;;;18.81;100.00
48652;BME280;34442;52.362;-1.302;2022-08-25T08:07:32;100471.16;;;18.95;100.00
48652;BME280;34442;52.362;-1.302;2022-08-25T08:09:58;100472.00;;;19.01;100.00
48652;BME280;34442;52.362;-1.302;2022-08-25T08:12:24;100467.28;;;18.86;100.00
48652;BME280;34442;52.362;-1.302;2022-08-25T08:14:53;100468.72;;;18.94;100.00
48652;BME280;34442;52.362;-1.302;2022-08-25T08:17:19;100462.13;;;18.90;100.00
48652;BME280;34442;52.362;-1.302;2022-08-25T08:19:45;100468.94;;;18.92;100.00
48652;BME280;34442;52.362;-1.302;2022-08-25T08:22:12;100468.13;;;18.92;100.00
48652;BME280;34442;52.362;-1.302;2022-08-25T08:24:43;100464.03;;;18.89;100.00
48652;BME280;34442;52.362;-1.302;2022-08-25T08:27:11;100460.22;;;18.90;100.00
48652;BME280;34442;52.362;-1.302;2022-08-25T08:29:39;100476.59;;;18.95;100.00
48652;BME280;34442;52.362;-1.302;2022-08-25T08:32:07;100482.38;;;18.99;100.00
48652;BME280;34442;52.362;-1.302;2022-08-25T08:34:34;100483.19;;;18.99;100.00
48652;BME280;34442;52.362;-1.302;2022-08-25T08:37:00;100482.97;;;19.06;100.00
48652;BME280;34442;52.362;-1.302;2022-08-25T08:39:28;100485.13;;;19.04;100.00
48652;BME280;34442;52.362;-1.302;2022-08-25T08:42:02;100481.09;;;19.12;100.00
48652;BME280;34442;52.362;-1.302;2022-08-25T08:53:08;100483.66;;;18.91;100.00
48652;BME280;34442;52.362;-1.302;2022-08-25T08:55:48;100478.44;;;18.84;100.00
48652;BME280;34442;52.362;-1.302;2022-08-25T08:58:22;100485.88;;;18.94;100.00
48652;BME280;34442;52.362;-1.302;2022-08-25T09:00:52;100480.47;;;18.99;100.00
48652;BME280;34442;52.362;-1.302;2022-08-25T09:05:57;100481.53;;;18.98;100.00
48652;BME280;34442;52.362;-1.302;2022-08-25T09:08:25;100484.34;;;19.08;100.00
48652;BME280;34442;52.362;-1.302;2022-08-25T09:11:45;100479.81;;;19.24;100.00
48652;BME280;34442;52.362;-1.302;2022-08-25T09:14:17;100481.38;;;19.10;100.00
48652;BME280;34442;52.362;-1.302;2022-08-25T09:16:50;100488.16;;;19.07;100.00
48652;BME280;34442;52.362;-1.302;2022-08-25T09:19:51;100491.19;;;19.11;100.00
48652;BME280;34442;52.362;-1.302;2022-08-25T09:28:19;100466.47;;;18.86;100.00
48652;BME280;34442;52.362;-1.302;2022-08-25T09:30:50;100456.44;;;18.96;100.00
48652;BME280;34442;52.362;-1.302;2022-08-25T09:33:21;100454.00;;;18.95;100.00
48652;BME280;34442;52.362;-1.302;2022-08-25T09:35:48;100439.84;;;18.98;100.00
48652;BME280;34442;52.362;-1.302;2022-08-25T09:38:15;100438.28;;;19.07;100.00
48652;BME280;34442;52.362;-1.302;2022-08-25T09:40:44;100437.44;;;19.01;100.00
48652;BME280;34442;52.362;-1.302;2022-08-25T09:46:13;100443.69;;;19.02;100.00
48652;BME280;34442;52.362;-1.302;2022-08-25T09:48:48;100438.56;;;19.05;100.00
48652;BME280;34442;52.362;-1.302;2022-08-25T09:51:36;100447.84;;;19.09;100.00
48652;BME280;34442;52.362;-1.302;2022-08-25T09:54:17;100454.13;;;19.10;100.00
48652;BME280;34442;52.362;-1.302;2022-08-25T09:56:53;100449.09;;;18.97;100.00
48652;BME280;34442;52.362;-1.302;2022-08-25T09:59:26;100445.56;;;18.96;100.00
48652;BME280;34442;52.362;-1.302;2022-08-25T10:01:56;100442.94;;;19.12;100.00
48652;BME280;34442;52.362;-1.302;2022-08-25T10:06:58;100417.72;;;19.31;100.00
48652;BME280;34442;52.362;-1.302;2022-08-25T10:09:33;100423.72;;;19.33;100.00
48652;BME280;34442;52.362;-1.302;2022-08-25T10:12:00;100440.97;;;19.02;100.00
48652;BME280;34442;52.362;-1.302;2022-08-25T10:14:34;100447.00;;;19.09;100.00
48652;BME280;34442;52.362;-1.302;2022-08-25T10:17:26;100446.34;;;18.92;100.00
48652;BME280;34442;52.362;-1.302;2022-08-25T10:20:04;100446.44;;;18.70;100.00
48652;BME280;34442;52.362;-1.302;2022-08-25T10:22:39;100445.09;;;18.72;100.00
48652;BME280;34442;52.362;-1.302;2022-08-25T10:25:10;100449.78;;;18.77;100.00
48652;BME280;34442;52.362;-1.302;2022-08-25T10:31:07;100422.41;;;18.67;100.00
48652;BME280;34442;52.362;-1.302;2022-08-25T10:34:10;100428.22;;;18.75;100.00
48652;BME280;34442;52.362;-1.302;2022-08-25T10:50:28;100450.41;;;18.62;100.00
48652;BME280;34442;52.362;-1.302;2022-08-25T10:55:48;100462.69;;;18.65;100.00
48652;BME280;34442;52.362;-1.302;2022-08-25T11:01:20;100462.06;;;18.30;100.00
48652;BME280;34442;52.362;-1.302;2022-08-25T11:06:27;100463.81;;;18.42;100.00
48652;BME280;34442;52.362;-1.302;2022-08-25T11:09:00;100460.78;;;18.38;100.00
48652;BME280;34442;52.362;-1.302;2022-08-25T11:11:37;100458.00;;;18.33;100.00
48652;BME280;34442;52.362;-1.302;2022-08-25T11:14:23;100458.28;;;18.31;100.00
48652;BME280;34442;52.362;-1.302;2022-08-25T11:16:59;100456.88;;;18.29;100.00
48652;BME280;34442;52.362;-1.302;2022-08-25T11:19:46;100447.22;;;18.43;100.00
48652;BME280;34442;52.362;-1.302;2022-08-25T11:25:10;100446.31;;;18.32;100.00
48652;BME280;34442;52.362;-1.302;2022-08-25T11:27:56;100463.16;;;18.29;100.00
48652;BME280;34442;52.362;-1.302;2022-08-25T11:30:23;100469.34;;;18.25;100.00
48652;BME280;34442;52.362;-1.302;2022-08-25T11:32:52;100474.16;;;18.18;100.00
48652;BME280;34442;52.362;-1.302;2022-08-25T11:35:26;100470.06;;;18.15;100.00
48652;BME280;34442;52.362;-1.302;2022-08-25T11:40:37;100467.56;;;17.87;100.00
48652;BME280;34442;52.362;-1.302;2022-08-25T11:43:41;100471.78;;;17.99;100.00
48652;BME280;34442;52.362;-1.302;2022-08-25T11:46:21;100480.50;;;17.79;100.00
48652;BME280;34442;52.362;-1.302;2022-08-25T11:51:42;100487.84;;;17.62;100.00
48652;BME280;34442;52.362;-1.302;2022-08-25T11:54:33;100494.72;;;17.31;100.00
48652;BME280;34442;52.362;-1.302;2022-08-25T11:57:18;100497.13;;;17.27;100.00
48652;BME280;34442;52.362;-1.302;2022-08-25T12:04:56;100505.25;;;17.44;100.00
48652;BME280;34442;52.362;-1.302;2022-08-25T12:10:22;100510.38;;;17.41;100.00
48652;BME280;34442;52.362;-1.302;2022-08-25T12:15:32;100514.25;;;17.45;100.00
48652;BME280;34442;52.362;-1.302;2022-08-25T12:23:42;100524.94;;;17.34;100.00
48652;BME280;34442;52.362;-1.302;2022-08-25T12:37:24;100549.56;;;17.28;100.00
48652;BME280;34442;52.362;-1.302;2022-08-25T12:42:35;100553.53;;;17.20;100.00
48652;BME280;34442;52.362;-1.302;2022-08-25T12:47:48;100561.59;;;17.32;100.00
48652;BME280;34442;52.362;-1.302;2022-08-25T12:53:13;100562.59;;;17.43;100.00
48652;BME280;34442;52.362;-1.302;2022-08-25T12:55:47;100573.13;;;17.39;100.00
48652;BME280;34442;52.362;-1.302;2022-08-25T12:58:16;100572.78;;;17.19;100.00
48652;BME280;34442;52.362;-1.302;2022-08-25T13:00:57;100568.50;;;17.23;100.00
48652;BME280;34442;52.362;-1.302;2022-08-25T13:04:02;100575.69;;;17.12;100.00
48652;BME280;34442;52.362;-1.302;2022-08-25T13:15:31;100582.91;;;16.78;100.00
48652;BME280;34442;52.362;-1.302;2022-08-25T13:18:18;100578.66;;;16.70;100.00
48652;BME280;34442;52.362;-1.302;2022-08-25T13:20:46;100570.88;;;16.74;100.00
48652;BME280;34442;52.362;-1.302;2022-08-25T13:23:17;100567.56;;;16.83;100.00
48652;BME280;34442;52.362;-1.302;2022-08-25T13:25:48;100569.59;;;16.76;100.00
48652;BME280;34442;52.362;-1.302;2022-08-25T13:28:35;100569.34;;;16.66;100.00
48652;BME280;34442;52.362;-1.302;2022-08-25T13:31:06;100573.59;;;16.74;100.00
48652;BME280;34442;52.362;-1.302;2022-08-25T13:33:34;100565.06;;;16.82;100.00
48652;BME280;34442;52.362;-1.302;2022-08-25T13:36:01;100570.72;;;17.09;100.00
48652;BME280;34442;52.362;-1.302;2022-08-25T13:38:47;100568.28;;;17.24;100.00
48652;BME280;34442;52.362;-1.302;2022-08-25T13:41:21;100575.63;;;17.41;100.00
48652;BME280;34442;52.362;-1.302;2022-08-25T13:43:48;100571.16;;;17.51;100.00
48652;BME280;34442;52.362;-1.302;2022-08-25T13:46:20;100573.91;;;17.73;100.00
48652;BME280;34442;52.362;-1.302;2022-08-25T13:48:47;100575.38;;;18.15;100.00
48652;BME280;34442;52.362;-1.302;2022-08-25T13:51:23;100577.03;;;18.16;100.00
48652;BME280;34442;52.362;-1.302;2022-08-25T13:53:57;100570.00;;;18.20;100.00
48652;BME280;34442;52.362;-1.302;2022-08-25T13:56:29;100570.22;;;17.96;100.00
48652;BME280;34442;52.362;-1.302;2022-08-25T13:58:58;100572.88;;;17.91;100.00
48652;BME280;34442;52.362;-1.302;2022-08-25T14:01:28;100574.03;;;17.95;100.00
48652;BME280;34442;52.362;-1.302;2022-08-25T14:04:18;100577.41;;;17.85;100.00
48652;BME280;34442;52.362;-1.302;2022-08-25T14:06:43;100570.28;;;18.01;100.00
48652;BME280;34442;52.362;-1.302;2022-08-25T14:09:15;100568.22;;;18.30;100.00
48652;BME280;34442;52.362;-1.302;2022-08-25T14:11:47;100570.63;;;18.49;100.00
48652;BME280;34442;52.362;-1.302;2022-08-25T14:16:52;100571.91;;;18.41;100.00
48652;BME280;34442;52.362;-1.302;2022-08-25T14:19:21;100580.75;;;18.31;100.00
48652;BME280;34442;52.362;-1.302;2022-08-25T14:21:48;100574.63;;;18.19;100.00
48652;BME280;34442;52.362;-1.302;2022-08-25T14:24:16;100575.22;;;18.04;100.00
48652;BME280;34442;52.362;-1.302;2022-08-25T14:26:43;100571.91;;;18.19;100.00
48652;BME280;34442;52.362;-1.302;2022-08-25T14:29:11;100582.31;;;18.05;100.00
48652;BME280;34442;52.362;-1.302;2022-08-25T14:31:40;100582.75;;;17.97;100.00
48652;BME280;34442;52.362;-1.302;2022-08-25T14:34:16;100585.34;;;18.09;100.00